TRF weather

Sandefjord Airport, Torp
Torp, Vestfold, Norway

Public forecast

Using degrees Celsius for public forecast. Weather courtesy of forecast.io.

METAR (pilot weather report)

Retrieved 2019/05/22 16:20 UTC (0 seconds ago):

ENTO 221620Z 18006KT 1400 R18/P2000N R36/P2000D BR VV003 12/12 Q1008 TEMPO 2000 -RA BR

TAF (pilot weather forecast)

Retrieved 2019/05/22 12:00 UTC (4 hours ago):

TAF ENTO 221100Z 2212/2312 16010KT 9999 FEW020TCU BKN040 TEMPO 2212/2220 4000 SHRA BR BKN005 FEW020CB BECMG 2301/2303 22012KT